Time;durP1;ratioP1;P1;durP2;ratioP2;P2;SDS_P1;SDS_P2;PMS_P1;PMS_P2;Temp;Humidity;BMP_temperature;BMP_pressure;BME280_temperature;BME280_humidity;BME280_pressure;Samples;Min_cycle;Max_cycle;Signal;HPM_P1;HPM_P2
2022/04/25 00:00:06;;;;;;;25.65;10.60;;;;;;;18.53;45.10;101667.75;5071637;28;20033;-84
2022/04/25 00:02:32;;;;;;;22.60;8.55;;;;;;;18.57;44.92;101665.88;5062166;28;20012;-82
2022/04/25 00:04:57;;;;;;;29.52;8.07;;;;;;;18.34;45.79;101664.72;5071550;28;20016;-83
2022/04/25 00:07:23;;;;;;;35.55;9.18;;;;;;;18.50;45.47;101668.41;5062764;28;20098;-83
2022/04/25 00:09:49;;;;;;;24.63;8.98;;;;;;;18.37;46.21;101670.38;5071364;28;20035;-82
2022/04/25 00:12:15;;;;;;;28.95;10.52;;;;;;;18.80;44.81;101672.63;5072515;28;20031;-84
2022/04/25 00:14:41;;;;;;;23.45;7.55;;;;;;;18.47;45.59;101664.38;5072659;28;20456;-83
2022/04/25 00:17:07;;;;;;;22.38;9.88;;;;;;;18.68;45.55;101671.81;5072555;28;20126;-83
2022/04/25 00:19:32;;;;;;;21.13;8.30;;;;;;;18.65;45.41;101670.50;5072421;28;20056;-82
2022/04/25 00:21:58;;;;;;;28.77;9.18;;;;;;;18.91;44.80;101663.88;5087961;28;20066;-83
2022/04/25 00:24:24;;;;;;;26.88;9.18;;;;;;;18.28;46.58;101666.88;5072389;28;20440;-82
2022/04/25 00:26:49;;;;;;;23.73;8.73;;;;;;;18.12;46.83;101658.44;5071080;28;20028;-84
2022/04/25 00:29:15;;;;;;;19.10;9.13;;;;;;;18.21;46.23;101667.47;5070449;28;20060;-84
2022/04/25 00:31:41;;;;;;;26.25;7.55;;;;;;;18.23;46.10;101669.88;5070683;28;20021;-84
2022/04/25 00:34:07;;;;;;;28.33;9.13;;;;;;;18.66;44.86;101671.34;5071240;28;20390;-86
2022/04/25 00:36:33;;;;;;;26.27;9.00;;;;;;;18.90;44.03;101665.84;5071302;28;20032;-85
2022/04/25 00:38:58;;;;;;;20.80;8.13;;;;;;;18.75;44.74;101667.31;5071092;28;20376;-85
2022/04/25 00:41:24;;;;;;;27.45;8.30;;;;;;;18.73;44.43;101653.00;5071251;28;20039;-85
2022/04/25 00:43:57;;;;;;;20.52;7.78;;;;;;;18.55;44.65;101649.63;5072513;28;20108;-86
2022/04/25 00:46:26;;;;;;;20.98;6.97;;;;;;;18.58;44.60;101653.66;5071066;28;20035;-86
2022/04/25 00:48:52;;;;;;;22.15;7.93;;;;;;;18.76;44.04;101657.88;5070829;28;20049;-85
2022/04/25 00:51:18;;;;;;;14.95;7.43;;;;;;;18.59;44.16;101649.78;5070983;28;20033;-86
2022/04/25 00:53:45;;;;;;;29.42;8.93;;;;;;;18.78;43.74;101652.78;5071208;28;20090;-86
2022/04/25 00:56:14;;;;;;;17.23;6.40;;;;;;;18.72;43.56;101651.41;5071145;28;20399;-85
2022/04/25 00:58:40;;;;;;;18.60;7.35;;;;;;;18.70;43.64;101650.94;5075068;28;20036;-85
2022/04/25 01:01:06;;;;;;;29.70;8.20;;;;;;;18.70;43.62;101658.44;5076406;28;20029;-85
2022/04/25 01:03:33;;;;;;;17.92;7.35;;;;;;;18.64;43.81;101657.00;5074877;28;20494;-84
2022/04/25 01:05:58;;;;;;;26.85;7.82;;;;;;;18.77;43.31;101662.25;5074770;28;20024;-86
2022/04/25 01:08:26;;;;;;;16.13;6.65;;;;;;;18.73;43.17;101666.03;5074756;28;20035;-85
2022/04/25 01:10:52;;;;;;;20.38;7.07;;;;;;;18.88;42.75;101668.13;5074829;28;20037;-84
2022/04/25 01:13:18;;;;;;;18.13;6.25;;;;;;;18.84;42.96;101664.44;5075956;28;20028;-85
2022/04/25 01:15:43;;;;;;;18.88;7.07;;;;;;;18.91;42.69;101666.63;5076016;28;20424;-85
2022/04/25 01:18:09;;;;;;;19.95;6.10;;;;;;;18.75;43.05;101658.22;5074624;28;20074;-84
2022/04/25 01:20:35;;;;;;;16.63;7.65;;;;;;;18.92;42.68;101662.72;5074690;28;20039;-85
2022/04/25 01:27:15;;;;;;;16.67;6.13;;;;;;;18.84;42.76;101656.13;5074551;28;20120;-85
2022/04/25 01:28:38;;;;;;;18.73;7.75;;;;;;;18.95;42.02;101662.00;5075621;28;20093;-83
2022/04/25 01:31:03;;;;;;;17.33;5.50;;;;;;;18.73;42.67;101657.72;5074340;28;20028;-83
2022/04/25 01:33:29;;;;;;;13.20;6.03;;;;;;;18.87;42.00;101646.31;5075492;28;20514;-83
2022/04/25 01:35:55;;;;;;;15.65;5.97;;;;;;;18.69;42.26;101643.00;5075451;28;20062;-83
2022/04/25 01:38:21;;;;;;;11.80;5.53;;;;;;;18.54;42.61;101650.00;5075387;28;20021;-83
2022/04/25 01:40:47;;;;;;;14.15;5.55;;;;;;;18.74;41.93;101662.13;5075707;28;20025;-86
2022/04/25 01:43:13;;;;;;;11.18;5.85;;;;;;;18.53;42.18;101653.91;5075606;28;20475;-83
2022/04/25 01:45:41;;;;;;;12.38;5.05;;;;;;;18.55;41.82;101657.94;5075194;28;20028;-85
2022/04/25 01:48:07;;;;;;;16.98;5.28;;;;;;;18.28;42.12;101650.28;5073708;28;20387;-84
2022/04/25 01:50:33;;;;;;;20.35;5.32;;;;;;;18.40;41.68;101643.97;5073569;28;20032;-85
2022/04/25 01:52:58;;;;;;;14.90;5.15;;;;;;;18.32;41.37;101640.16;5073979;28;20379;-86
2022/04/25 01:55:24;;;;;;;15.75;5.85;;;;;;;18.24;41.22;101635.53;5073916;28;20025;-85
2022/04/25 01:57:50;;;;;;;12.00;4.28;;;;;;;18.30;41.29;101654.34;5074989;28;20540;-85
2022/04/25 02:00:16;;;;;;;13.30;5.38;;;;;;;18.44;40.77;101648.50;5073823;28;20024;-83
2022/04/25 02:02:42;;;;;;;17.90;4.85;;;;;;;18.48;40.86;101646.63;5073867;28;20020;-85
2022/04/25 02:05:08;;;;;;;18.88;5.45;;;;;;;18.47;40.79;101644.22;5073777;28;20111;-86
2022/04/25 02:07:33;;;;;;;11.63;6.00;;;;;;;18.29;41.23;101635.31;5073473;28;20025;-85
2022/04/25 02:09:59;;;;;;;21.05;5.78;;;;;;;18.22;41.34;101633.13;5073698;28;20445;-85
2022/04/25 02:12:25;;;;;;;15.82;4.90;;;;;;;18.36;41.16;101635.53;5074862;28;20025;-84
2022/04/25 02:14:50;;;;;;;14.95;5.05;;;;;;;18.10;41.49;101638.63;5074824;28;20029;-84
2022/04/25 02:17:16;;;;;;;10.07;4.55;;;;;;;18.05;41.68;101640.78;5074718;28;20024;-83
2022/04/25 02:19:44;;;;;;;13.02;4.85;;;;;;;18.14;41.21;101645.09;5073471;28;20024;-84
2022/04/25 02:22:11;;;;;;;21.23;7.40;;;;;;;18.12;41.17;101647.38;5073352;28;20028;-84
2022/04/25 02:24:38;;;;;;;10.45;4.88;;;;;;;18.14;41.38;101641.53;5074599;28;20013;-85
2022/04/25 02:27:05;;;;;;;12.63;4.95;;;;;;;18.29;40.95;101640.84;5073230;28;20039;-83
2022/04/25 02:29:33;;;;;;;12.60;3.90;;;;;;;18.40;40.50;101641.22;5073219;28;20462;-83
2022/04/25 02:32:00;;;;;;;18.40;5.57;;;;;;;18.41;40.42;101640.84;5074414;28;20029;-83
2022/04/25 02:34:27;;;;;;;18.58;5.38;;;;;;;18.38;40.58;101638.78;5073126;28;20039;-84
2022/04/25 02:36:55;;;;;;;14.85;4.93;;;;;;;18.34;40.53;101625.97;5074330;28;20029;-83
2022/04/25 02:39:22;;;;;;;12.52;5.00;;;;;;;18.34;40.62;101631.50;5074410;28;20016;-84
2022/04/25 02:41:48;;;;;;;17.95;4.93;;;;;;;18.24;40.54;101625.28;5072916;28;20075;-84
2022/04/25 02:44:13;;;;;;;15.57;6.05;;;;;;;18.25;40.64;101617.78;5074223;28;20029;-84
2022/04/25 02:46:39;;;;;;;13.75;5.50;;;;;;;18.14;40.73;101622.16;5074056;28;20035;-83
2022/04/25 02:49:04;;;;;;;17.40;4.90;;;;;;;18.21;40.56;101616.84;5072380;28;20059;-84
2022/04/25 02:51:30;;;;;;;12.00;4.65;;;;;;;18.06;40.87;101621.09;5074035;28;20463;-83
2022/04/25 02:53:55;;;;;;;22.10;5.07;;;;;;;18.20;40.59;101612.47;5089317;28;20437;-84
2022/04/25 02:56:21;;;;;;;14.88;6.18;;;;;;;18.28;40.25;101614.31;5073624;28;20031;-84
2022/04/25 02:58:47;;;;;;;15.75;4.78;;;;;;;18.19;40.47;101606.13;5072749;28;20055;-84
2022/04/25 03:01:12;;;;;;;10.73;5.30;;;;;;;18.23;40.47;101609.84;5072640;28;20024;-85
2022/04/25 03:03:38;;;;;;;13.85;4.80;;;;;;;18.28;40.40;101608.78;5072540;28;20035;-84
2022/04/25 03:06:09;;;;;;;15.27;5.13;;;;;;;18.27;40.29;101604.41;5073645;28;20032;-85
2022/04/25 03:08:36;;;;;;;15.65;5.95;;;;;;;18.16;40.44;101604.06;5073845;28;20025;-84
2022/04/25 03:11:04;;;;;;;13.15;4.88;;;;;;;18.13;40.56;101592.88;5073677;28;20085;-84
2022/04/25 03:13:30;;;;;;;18.50;5.97;;;;;;;18.09;40.86;101598.28;5073671;28;20070;-84
2022/04/25 03:15:56;;;;;;;14.63;5.10;;;;;;;18.10;40.85;101602.66;5072215;28;20029;-84
2022/04/25 03:18:22;;;;;;;15.02;5.05;;;;;;;17.92;41.30;101604.03;5072041;28;20509;-85
2022/04/25 03:20:49;;;;;;;16.98;5.93;;;;;;;18.00;41.14;101601.16;5072869;28;20074;-85
2022/04/25 03:23:16;;;;;;;15.77;5.10;;;;;;;17.92;41.62;101602.06;5072136;28;20020;-84
2022/04/25 03:25:42;;;;;;;15.05;5.38;;;;;;;17.90;41.51;101611.81;5072013;28;20052;-84
2022/04/25 03:28:08;;;;;;;16.10;6.40;;;;;;;17.87;41.75;101605.03;5073365;28;20486;-84
2022/04/25 03:30:34;;;;;;;14.60;4.80;;;;;;;18.06;41.32;101610.03;5072300;28;20031;-85
2022/04/25 03:32:59;;;;;;;19.85;5.57;;;;;;;17.99;41.50;101609.81;5072078;28;20381;-84
2022/04/25 03:35:25;;;;;;;17.00;4.53;;;;;;;17.97;41.44;101598.25;5071897;28;20567;-83
2022/04/25 03:37:52;;;;;;;10.07;4.03;;;;;;;17.75;41.57;101597.50;5071921;28;20032;-83
2022/04/25 03:40:18;;;;;;;10.32;4.45;;;;;;;17.71;41.31;101607.63;5071924;28;20119;-84
2022/04/25 03:42:44;;;;;;;16.10;4.35;;;;;;;17.54;41.74;101598.69;5071712;28;20434;-83
2022/04/25 03:45:12;;;;;;;13.77;4.30;;;;;;;17.64;41.16;101598.25;5071647;28;20032;-83
2022/04/25 03:47:39;;;;;;;12.07;4.05;;;;;;;17.47;41.09;101596.47;5072965;28;20028;-83
2022/04/25 03:50:08;;;;;;;11.43;3.60;;;;;;;17.44;40.78;101597.13;5072786;28;20448;-83
2022/04/25 03:52:35;;;;;;;6.85;3.55;;;;;;;17.35;40.31;101597.19;5073009;28;20029;-83
2022/04/25 03:58:00;;;;;;;16.70;5.35;;;;;;;17.53;40.06;101600.59;5072941;28;20143;-83
2022/04/25 04:00:27;;;;;;;11.73;4.03;;;;;;;17.37;40.14;101599.63;5072738;28;20028;-83
2022/04/25 04:02:53;;;;;;;8.13;4.25;;;;;;;17.48;40.13;101592.56;5072715;28;20047;-83
2022/04/25 04:05:20;;;;;;;13.68;4.57;;;;;;;17.52;40.03;101590.72;5072635;28;20470;-83
2022/04/25 04:07:47;;;;;;;14.48;6.03;;;;;;;17.56;40.07;101594.44;5071411;28;20115;-83
2022/04/25 04:10:13;;;;;;;18.42;4.20;;;;;;;17.65;39.79;101597.91;5071404;28;20470;-83
2022/04/25 04:12:39;;;;;;;10.98;4.57;;;;;;;17.78;39.50;101598.00;5072676;28;20016;-83
2022/04/25 04:15:06;;;;;;;14.55;4.53;;;;;;;17.72;39.84;101602.91;5071358;28;20068;-84
2022/04/25 04:17:33;;;;;;;19.13;5.43;;;;;;;17.70;39.67;101603.25;5071271;28;20032;-83
2022/04/25 04:20:00;;;;;;;10.48;4.22;;;;;;;17.63;39.58;101599.41;5071198;28;20623;-84
2022/04/25 04:22:29;;;;;;;21.75;5.32;;;;;;;17.58;39.75;101600.41;5071525;28;20058;-83
2022/04/25 04:25:12;;;;;;;14.15;4.40;;;;;;;17.51;39.47;101605.69;5071675;28;20090;-83
2022/04/25 04:27:39;;;;;;;10.07;3.90;;;;;;;17.74;39.00;101597.84;5071280;28;20119;-83
2022/04/25 04:30:08;;;;;;;15.50;5.10;;;;;;;17.73;39.31;101599.00;5072481;28;20078;-84
2022/04/25 04:32:34;;;;;;;23.67;5.25;;;;;;;17.67;39.17;101612.19;5072453;28;20029;-84
2022/04/25 04:35:01;;;;;;;12.98;4.15;;;;;;;17.59;39.32;101610.31;5072352;28;20051;-85
2022/04/25 04:37:29;;;;;;;9.43;4.20;;;;;;;17.59;39.41;101620.56;5072526;28;20024;-84
2022/04/25 04:40:28;;;;;;;11.25;4.13;;;;;;;17.46;39.67;101619.72;5071124;28;20027;-84
2022/04/25 04:42:41;;;;;;;14.43;3.85;;;;;;;17.51;39.50;101622.25;5072282;28;20498;-84
2022/04/25 04:45:07;;;;;;;11.70;3.70;;;;;;;17.36;39.79;101622.88;5071147;28;20071;-84
2022/04/25 04:47:35;;;;;;;9.98;4.13;;;;;;;17.37;39.78;101628.06;5070604;28;20194;-85
2022/04/25 04:50:00;;;;;;;10.63;4.00;;;;;;;17.44;39.66;101639.38;5070650;28;20048;-84
2022/04/25 04:52:26;;;;;;;9.68;3.40;;;;;;;17.42;39.95;101640.88;5070975;28;20031;-84
2022/04/25 04:54:52;;;;;;;10.40;3.72;;;;;;;17.33;40.13;101637.38;5072238;28;20033;-83
2022/04/25 04:57:17;;;;;;;12.45;4.53;;;;;;;17.39;40.17;101631.31;5072258;28;20367;-83
2022/04/25 04:59:43;;;;;;;15.88;4.07;;;;;;;17.38;40.04;101617.81;5072285;28;20161;-82
2022/04/25 05:02:09;;;;;;;12.55;5.15;;;;;;;17.46;40.13;101623.28;5072363;28;20052;-86
2022/04/25 05:04:34;;;;;;;15.25;4.55;;;;;;;17.41;40.44;101636.50;5070955;28;20033;-85
2022/04/25 05:07:00;;;;;;;9.15;3.58;;;;;;;17.39;40.18;101636.03;5071049;28;20445;-85
2022/04/25 05:09:26;;;;;;;11.38;3.80;;;;;;;17.29;40.85;101639.97;5071026;28;20482;-84
2022/04/25 05:11:51;;;;;;;10.68;4.93;;;;;;;17.29;40.81;101631.69;5070891;28;20031;-84
2022/04/25 05:14:17;;;;;;;8.65;4.70;;;;;;;17.43;40.19;101625.91;5072154;28;20067;-84
2022/04/25 05:16:42;;;;;;;14.95;4.55;;;;;;;17.37;40.38;101630.00;5071946;28;20033;-85
2022/04/25 05:19:08;;;;;;;26.02;4.25;;;;;;;17.41;40.52;101633.72;5070969;28;20032;-85
2022/04/25 05:21:34;;;;;;;16.35;3.80;;;;;;;17.42;40.53;101632.56;5070874;28;20436;-82
2022/04/25 05:24:00;;;;;;;10.07;4.03;;;;;;;17.55;39.98;101631.50;5072007;28;20024;-85
2022/04/25 05:26:25;;;;;;;12.80;4.00;;;;;;;17.48;40.25;101629.28;5071944;28;20040;-83
2022/04/25 05:28:51;;;;;;;11.73;3.63;;;;;;;17.45;40.42;101637.41;5067930;28;20029;-84
2022/04/25 05:31:16;;;;;;;11.27;4.20;;;;;;;17.58;40.07;101628.03;5071447;28;20478;-84
2022/04/25 05:33:42;;;;;;;9.95;3.92;;;;;;;17.68;39.98;101629.56;5050756;28;20063;-84
2022/04/25 05:36:07;;;;;;;9.95;4.15;;;;;;;17.62;40.15;101642.81;5068444;28;20029;-85
2022/04/25 05:38:34;;;;;;;13.10;4.78;;;;;;;17.73;40.05;101649.56;5071587;28;20064;-85
2022/04/25 05:40:59;;;;;;;20.20;4.32;;;;;;;17.66;40.37;101652.03;5070608;28;20031;-84
2022/04/25 05:43:25;;;;;;;8.82;3.00;;;;;;;17.86;40.42;101644.09;5072384;28;20033;-84
2022/04/25 05:45:51;;;;;;;12.68;4.22;;;;;;;17.84;40.30;101640.84;5091118;28;20029;-84
2022/04/25 05:53:44;;;;;;;11.75;4.82;;;;;;;18.42;38.45;101641.66;5075380;28;20042;-85
2022/04/25 05:56:10;;;;;;;17.45;4.45;;;;;;;18.44;38.81;101653.19;5075381;28;20115;-83
2022/04/25 05:58:36;;;;;;;11.63;3.65;;;;;;;18.41;38.93;101645.59;5075200;28;20090;-83
2022/04/25 06:01:01;;;;;;;8.20;3.97;;;;;;;18.54;38.63;101648.03;5074050;28;20039;-83
2022/04/25 06:03:27;;;;;;;10.90;3.85;;;;;;;18.66;39.03;101655.53;5075024;28;20028;-84
2022/04/25 06:05:55;;;;;;;18.10;4.95;;;;;;;18.73;38.80;101666.03;5074691;28;20029;-84
2022/04/25 06:08:21;;;;;;;13.82;4.25;;;;;;;18.73;38.68;101669.63;5075156;28;20025;-84
2022/04/25 06:10:47;;;;;;;7.38;3.08;;;;;;;18.62;38.80;101673.97;5075044;28;20032;-83
2022/04/25 06:13:13;;;;;;;8.38;3.58;;;;;;;18.81;37.93;101668.69;5074979;28;20475;-84
2022/04/25 06:15:39;;;;;;;12.98;4.05;;;;;;;18.77;38.15;101662.25;5073548;28;20376;-84
2022/04/25 06:18:05;;;;;;;15.88;4.43;;;;;;;18.98;38.31;101669.63;5090287;28;20028;-84
2022/04/25 06:20:30;;;;;;;12.88;4.68;;;;;;;19.07;38.32;101671.13;5073604;28;20089;-84
2022/04/25 06:22:59;;;;;;;13.15;4.43;;;;;;;19.03;38.43;101674.91;5074849;28;20028;-83
2022/04/25 06:25:26;;;;;;;14.10;4.10;;;;;;;19.11;38.59;101685.06;5074619;28;20033;-84
2022/04/25 06:27:52;;;;;;;12.35;4.80;;;;;;;19.04;38.86;101674.59;5073444;28;20475;-83
2022/04/25 06:30:23;;;;;;;8.23;3.78;;;;;;;18.97;39.12;101677.13;5073246;28;20036;-83
2022/04/25 06:32:49;;;;;;;10.68;4.13;;;;;;;19.06;39.05;101674.22;5074687;28;20032;-83
2022/04/25 06:35:15;;;;;;;12.80;4.18;;;;;;;18.99;39.51;101679.56;5074530;28;20383;-82
2022/04/25 06:37:40;;;;;;;13.93;5.78;;;;;;;19.08;39.19;101686.56;5074551;28;20021;-83
2022/04/25 06:40:07;;;;;;;14.90;5.32;;;;;;;19.07;39.29;101692.47;5074464;28;20021;-83
2022/04/25 06:42:33;;;;;;;13.70;5.38;;;;;;;19.09;39.21;101682.66;5072919;28;20028;-82
2022/04/25 06:44:58;;;;;;;18.02;5.20;;;;;;;19.14;39.23;101695.47;5074234;28;20073;-83
2022/04/25 06:47:24;;;;;;;9.25;4.18;;;;;;;19.30;39.11;101699.13;5074949;28;20099;-82
2022/04/25 06:49:51;;;;;;;12.02;4.90;;;;;;;19.39;39.00;101690.69;5072624;28;20052;-83
2022/04/25 06:52:17;;;;;;;10.73;3.50;;;;;;;19.43;39.10;101699.13;5072946;28;20557;-83
2022/04/25 06:54:43;;;;;;;14.30;4.45;;;;;;;19.28;39.58;101697.88;5072954;28;20050;-82
2022/04/25 06:57:08;;;;;;;18.25;4.68;;;;;;;19.36;39.33;101699.69;5074119;28;20069;-85
2022/04/25 06:59:34;;;;;;;15.68;4.80;;;;;;;19.29;39.36;101694.75;5089462;28;20039;-84
2022/04/25 07:02:00;;;;;;;12.32;4.30;;;;;;;19.39;39.22;101699.81;5073923;28;20024;-84
2022/04/25 07:04:26;;;;;;;10.63;3.42;;;;;;;19.61;38.54;101684.66;5072583;28;20020;-83
2022/04/25 07:06:51;;;;;;;14.93;4.65;;;;;;;19.43;38.56;101705.47;5072498;28;20030;-83
2022/04/25 07:09:17;;;;;;;7.32;3.83;;;;;;;19.52;38.34;101697.81;5072734;28;20020;-84
2022/04/25 07:11:45;;;;;;;9.07;3.78;;;;;;;19.46;38.18;101703.94;5071858;28;20024;-80
2022/04/25 07:14:12;;;;;;;8.95;3.28;;;;;;;19.46;37.93;101706.72;5072004;28;20082;-77
2022/04/25 07:16:39;;;;;;;15.27;4.85;;;;;;;19.58;37.76;101709.50;5072524;28;21593;-78
2022/04/25 07:19:06;;;;;;;11.05;4.07;;;;;;;19.74;37.67;101709.56;5073549;28;20517;-76
2022/04/25 07:29:52;;;;;;;9.98;4.85;;;;;;;19.63;38.19;101704.50;5050743;28;20044;-76
2022/04/25 07:32:20;;;;;;;15.02;4.63;;;;;;;19.67;38.50;101707.38;5070444;28;20665;-76
2022/04/25 07:34:48;;;;;;;14.82;4.95;;;;;;;19.72;38.65;101706.31;5070401;28;20032;-86
2022/04/25 07:37:18;;;;;;;12.07;4.97;;;;;;;19.58;38.88;101706.72;5071441;28;20029;-76
2022/04/25 07:39:45;;;;;;;9.75;4.85;;;;;;;19.86;38.39;101710.31;5072393;28;20044;-76
2022/04/25 07:42:12;;;;;;;10.57;4.90;;;;;;;19.83;38.47;101704.69;5072698;28;20107;-76
2022/04/25 07:44:38;;;;;;;15.18;5.57;;;;;;;19.79;38.56;101712.06;5072760;28;20112;-76
2022/04/25 07:47:05;;;;;;;14.02;4.97;;;;;;;19.82;38.54;101709.41;5088359;28;20509;-76
2022/04/25 07:49:32;;;;;;;20.02;5.28;;;;;;;19.93;38.58;101709.72;5064973;28;20041;-76
2022/04/25 07:51:59;;;;;;;10.98;4.57;;;;;;;20.06;38.38;101714.06;5053236;28;20395;-87
2022/04/25 07:54:26;;;;;;;14.40;3.72;;;;;;;19.85;38.42;101710.66;5067669;28;20107;-76
2022/04/25 07:56:51;;;;;;;7.47;3.80;;;;;;;19.90;38.17;101719.56;5073195;28;20588;-86
2022/04/25 07:59:17;;;;;;;10.50;3.80;;;;;;;20.01;37.79;101725.38;5072696;28;20032;-77
2022/04/25 08:01:43;;;;;;;10.95;3.65;;;;;;;20.17;37.46;101717.91;5073610;28;20029;-88
2022/04/25 08:04:09;;;;;;;13.18;4.93;;;;;;;20.00;37.59;101723.78;5074172;28;20031;-88
2022/04/25 08:06:35;;;;;;;8.60;2.72;;;;;;;20.14;37.39;101723.38;5058674;28;20033;-83
2022/04/25 08:09:04;;;;;;;11.50;4.20;;;;;;;20.09;37.34;101720.84;5053828;28;20029;-89
2022/04/25 08:11:29;;;;;;;7.13;2.60;;;;;;;19.98;37.08;101725.31;5056145;28;20029;-88
2022/04/25 08:19:17;;;;;;;9.88;3.42;;;;;;;19.71;36.75;101732.44;5069171;28;20029;-79
2022/04/25 08:21:44;;;;;;;10.57;4.68;;;;;;;19.79;36.40;101734.25;5072474;28;20040;-81
2022/04/25 08:24:11;;;;;;;9.10;3.40;;;;;;;20.01;36.16;101733.72;5071028;28;20016;-81
2022/04/25 08:26:37;;;;;;;6.25;3.22;;;;;;;20.15;36.30;101731.34;5072834;28;20040;-76
2022/04/25 08:29:03;;;;;;;7.88;3.60;;;;;;;19.85;36.93;101728.13;5073022;28;20028;-76
2022/04/25 08:31:29;;;;;;;12.18;4.70;;;;;;;19.93;37.06;101723.56;5072487;28;20111;-76
2022/04/25 08:33:59;;;;;;;19.05;4.80;;;;;;;19.78;37.68;101733.44;5070869;28;20056;-77
2022/04/25 08:36:24;;;;;;;13.18;4.13;;;;;;;19.87;37.62;101731.34;5069718;28;20029;-76
2022/04/25 08:38:51;;;;;;;10.32;4.28;;;;;;;20.01;37.48;101730.13;5071100;28;20028;-76
2022/04/25 08:41:21;;;;;;;10.20;3.80;;;;;;;20.02;37.64;101734.53;5072053;28;20390;-76
2022/04/25 08:43:52;;;;;;;12.85;3.72;;;;;;;19.97;37.37;101735.59;5071305;28;20024;-76
2022/04/25 08:46:28;;;;;;;9.18;3.65;;;;;;;19.88;37.40;101726.63;5071889;28;20036;-93
2022/04/25 08:48:55;;;;;;;7.88;3.05;;;;;;;19.93;37.29;101740.22;5070044;28;20055;-76
2022/04/25 08:51:22;;;;;;;11.43;3.08;;;;;;;20.06;37.19;101739.03;5070434;28;20100;-76
2022/04/25 08:53:50;;;;;;;18.67;4.00;;;;;;;20.34;36.80;101746.53;5070456;28;20021;-76
2022/04/25 08:56:17;;;;;;;17.40;3.75;;;;;;;20.39;36.77;101747.06;5069240;28;20286;-76
2022/04/25 08:58:46;;;;;;;10.13;3.60;;;;;;;20.33;36.84;101745.72;5069120;28;20098;-90
2022/04/25 09:01:13;;;;;;;11.23;3.78;;;;;;;20.33;36.84;101751.28;5071914;28;20386;-93
2022/04/25 09:03:39;;;;;;;7.70;3.05;;;;;;;20.19;37.12;101753.66;5072605;28;20035;-91
2022/04/25 09:06:06;;;;;;;6.43;2.72;;;;;;;20.11;37.25;101760.16;5072295;28;20033;-76
2022/04/25 09:08:32;;;;;;;9.68;2.83;;;;;;;19.82;37.48;101764.06;5087609;28;20506;-76
2022/04/25 09:13:46;;;;;;;18.45;4.60;;;;;;;20.19;37.06;101756.44;5072382;28;20097;-91
2022/04/25 09:16:16;;;;;;;7.22;3.33;;;;;;;20.27;36.89;101763.78;5087488;28;20094;-92
2022/04/25 09:18:42;;;;;;;10.02;3.53;;;;;;;20.13;37.14;101772.50;5074499;28;20040;-76
2022/04/25 09:21:12;;;;;;;11.45;4.32;;;;;;;19.99;37.26;101776.84;5075521;28;20024;-76
2022/04/25 09:23:38;;;;;;;13.00;3.35;;;;;;;20.24;37.01;101778.34;5075808;28;20024;-76
2022/04/25 09:26:16;;;;;;;10.18;2.83;;;;;;;20.36;36.71;101774.72;5075904;28;20040;-76
2022/04/25 09:28:47;;;;;;;8.65;2.72;;;;;;;20.30;36.87;101779.72;5075716;28;20024;-76
2022/04/25 09:31:16;;;;;;;11.88;3.28;;;;;;;20.25;36.88;101785.50;5076303;28;20027;-93
2022/04/25 09:33:42;;;;;;;;;;;;;;;20.35;36.77;101776.69;5076632;28;20352;-76
2022/04/25 09:36:08;;;;;;;10.25;3.42;;;;;;;20.31;36.61;101788.84;5076151;28;19923;-92
2022/04/25 09:38:37;;;;;;;14.15;3.60;;;;;;;20.37;36.57;101784.66;5075812;28;20493;-76
2022/04/25 09:41:04;;;;;;;8.57;3.30;;;;;;;20.35;36.62;101790.56;5075705;28;20085;-91
2022/04/25 09:43:32;;;;;;;10.15;3.63;;;;;;;20.45;36.35;101789.28;5075551;28;20495;-87
2022/04/25 09:46:12;;;;;;;8.43;2.92;;;;;;;20.22;36.70;101791.78;5075668;28;20064;-76
2022/04/25 09:48:39;;;;;;;;;;;;;;;20.41;36.49;101791.94;5075802;28;20056;-93
2022/04/25 09:51:07;;;;;;;3.88;2.45;;;;;;;20.40;36.17;101797.81;5075224;28;20294;-76
2022/04/25 09:53:53;;;;;;;9.60;3.17;;;;;;;20.47;35.95;101798.06;5075474;28;20078;-76
2022/04/25 09:56:20;;;;;;;18.45;3.63;;;;;;;20.35;36.23;101795.31;5075961;28;20047;-76
2022/04/25 09:59:05;;;;;;;12.52;3.40;;;;;;;20.42;36.09;101801.06;5075208;28;20032;-91
2022/04/25 10:01:34;;;;;;;10.18;3.13;;;;;;;20.45;36.02;101797.59;5075355;28;20029;-76
2022/04/25 10:04:01;;;;;;;16.27;3.65;;;;;;;20.44;36.30;101796.00;5075085;28;20479;-76
2022/04/25 10:06:32;;;;;;;5.68;2.75;;;;;;;20.40;35.94;101795.88;5075053;28;20367;-76
2022/04/25 10:09:04;;;;;;;10.98;4.45;;;;;;;20.61;35.90;101800.41;5075575;28;20103;-76
2022/04/25 10:11:33;;;;;;;9.07;3.15;;;;;;;20.72;35.62;101807.06;5075254;28;20035;-76
2022/04/25 10:14:00;;;;;;;6.90;3.00;;;;;;;20.74;35.91;101807.53;5075300;28;20029;-76
2022/04/25 10:16:28;;;;;;;7.85;3.10;;;;;;;20.92;35.65;101807.97;5074605;28;20038;-76
2022/04/25 10:18:54;;;;;;;9.57;3.22;;;;;;;21.01;35.75;101794.75;5074598;28;20090;-76
2022/04/25 10:21:21;;;;;;;8.30;3.72;;;;;;;20.93;36.14;101793.75;5074784;28;20016;-76
2022/04/25 10:23:47;;;;;;;8.05;3.30;;;;;;;21.08;35.60;101794.88;5074850;28;20064;-91
2022/04/25 10:26:13;;;;;;;11.07;2.38;;;;;;;21.01;35.45;101795.53;5074689;28;20517;-76
2022/04/25 10:28:44;;;;;;;11.07;3.35;;;;;;;21.03;35.52;101798.75;5074328;28;20082;-76
2022/04/25 10:31:23;;;;;;;10.07;3.28;;;;;;;21.00;34.78;101793.91;5075199;28;20020;-91
2022/04/25 10:33:52;;;;;;;11.07;5.50;;;;;;;21.16;35.19;101796.69;5074828;28;20543;-80
2022/04/25 10:36:36;;;;;;;5.57;2.03;;;;;;;21.11;34.63;101804.50;5074717;28;20086;-91
2022/04/25 10:39:16;;;;;;;7.22;2.22;;;;;;;21.12;34.60;101804.13;5074475;28;20036;-91
2022/04/25 10:44:42;;;;;;;7.40;2.75;;;;;;;21.41;34.54;101811.22;5064053;28;20415;-76
2022/04/25 10:47:13;;;;;;;10.68;3.17;;;;;;;21.29;34.39;101805.75;5074690;28;20098;-76
2022/04/25 10:49:45;;;;;;;10.55;2.80;;;;;;;21.31;34.03;101809.81;5074162;28;20051;-90
2022/04/25 10:52:33;;;;;;;10.77;3.47;;;;;;;21.55;33.64;101814.34;5074437;28;20063;-91
2022/04/25 10:55:30;;;;;;;9.93;2.45;;;;;;;21.50;33.44;101809.06;5068540;28;20131;-76
2022/04/25 10:58:05;;;;;;;10.18;2.50;;;;;;;21.48;33.56;101814.16;5074432;28;20145;-76
2022/04/25 11:00:45;;;;;;;8.30;2.47;;;;;;;21.48;33.56;101810.59;5073748;28;20056;-76
2022/04/25 11:03:29;;;;;;;9.00;2.80;;;;;;;21.62;33.44;101815.69;5074358;28;20029;-76
2022/04/25 11:05:57;;;;;;;9.05;2.70;;;;;;;21.78;33.57;101810.88;5074142;28;20482;-76
2022/04/25 11:08:27;;;;;;;6.90;2.40;;;;;;;21.81;33.77;101812.91;5073760;28;20044;-92
2022/04/25 11:11:06;;;;;;;13.05;3.80;;;;;;;21.96;33.53;101809.28;5090267;28;20441;-90
2022/04/25 11:13:35;;;;;;;7.03;2.42;;;;;;;22.06;33.54;101813.44;5074096;28;20025;-77
2022/04/25 11:16:20;;;;;;;9.98;2.65;;;;;;;22.21;33.56;101811.81;5073659;28;20126;-76
2022/04/25 11:19:10;;;;;;;9.55;2.90;;;;;;;22.34;33.15;101818.84;5073306;28;20576;-76
2022/04/25 11:21:41;;;;;;;6.15;2.22;;;;;;;22.62;32.92;101813.81;5074030;28;20034;-75
2022/04/25 11:24:27;;;;;;;11.48;3.33;;;;;;;22.59;33.24;101810.97;5073649;28;20052;-76
2022/04/25 11:26:54;;;;;;;9.40;2.88;;;;;;;22.75;32.60;101808.91;5073305;28;20081;-76
2022/04/25 11:29:20;;;;;;;9.52;2.72;;;;;;;22.86;32.65;101806.31;5072495;28;20111;-83
2022/04/25 11:31:46;;;;;;;8.80;2.65;;;;;;;23.01;32.40;101810.97;5073457;28;20581;-76
2022/04/25 11:34:12;;;;;;;10.13;2.40;;;;;;;23.02;32.12;101808.97;5073617;28;20505;-91
2022/04/25 11:36:41;;;;;;;6.18;2.88;;;;;;;23.12;32.15;101816.69;5073337;28;20032;-76
2022/04/25 11:41:51;;;;;;;12.95;2.90;;;;;;;23.08;32.56;101815.84;5072953;28;20032;-76
2022/04/25 11:44:16;;;;;;;9.18;3.33;;;;;;;23.11;32.13;101815.91;5073352;28;20487;-91
2022/04/25 11:46:42;;;;;;;7.68;2.58;;;;;;;23.13;31.75;101812.75;5073535;28;20032;-77
2022/04/25 11:49:09;;;;;;;12.07;2.13;;;;;;;23.07;32.04;101808.69;5073148;28;20388;-76
2022/04/25 11:51:37;;;;;;;7.97;3.20;;;;;;;23.03;31.67;101814.16;5067234;28;20105;-76
2022/04/25 11:54:05;;;;;;;10.18;3.25;;;;;;;23.08;31.91;101811.09;5062435;28;20024;-91